sensor_id;sensor_type;location;lat;lon;timestamp;pressure;altitude;pressure_sealevel;temperature;humidity
74936;BME280;63501;55.570;37.488;2023-06-14T00:00:02;99392.63;;;13.72;51.34
74936;BME280;63501;55.570;37.488;2023-06-14T00:02:35;99385.91;;;13.70;51.55
74936;BME280;63501;55.570;37.488;2023-06-14T00:05:04;99385.53;;;13.68;51.17
74936;BME280;63501;55.570;37.488;2023-06-14T00:07:35;99390.34;;;13.64;51.54
74936;BME280;63501;55.570;37.488;2023-06-14T00:10:04;99391.97;;;13.58;51.35
74936;BME280;63501;55.570;37.488;2023-06-14T00:12:32;99397.19;;;13.52;51.74
74936;BME280;63501;55.570;37.488;2023-06-14T00:14:59;99396.06;;;13.46;52.20
74936;BME280;63501;55.570;37.488;2023-06-14T00:17:31;99392.94;;;13.44;51.75
74936;BME280;63501;55.570;37.488;2023-06-14T00:20:00;99393.34;;;13.42;51.88
74936;BME280;63501;55.570;37.488;2023-06-14T00:22:33;99392.13;;;13.43;52.62
74936;BME280;63501;55.570;37.488;2023-06-14T00:25:05;99391.31;;;13.46;52.02
74936;BME280;63501;55.570;37.488;2023-06-14T00:27:34;99388.94;;;13.45;52.32
74936;BME280;63501;55.570;37.488;2023-06-14T00:30:02;99387.78;;;13.42;52.57
74936;BME280;63501;55.570;37.488;2023-06-14T00:32:31;99387.41;;;13.40;52.19
74936;BME280;63501;55.570;37.488;2023-06-14T00:34:58;99381.09;;;13.36;52.65
74936;BME280;63501;55.570;37.488;2023-06-14T00:37:26;99378.72;;;13.35;52.03
74936;BME280;63501;55.570;37.488;2023-06-14T00:39:54;99377.56;;;13.32;52.81
74936;BME280;63501;55.570;37.488;2023-06-14T00:42:26;99377.56;;;13.32;53.05
74936;BME280;63501;55.570;37.488;2023-06-14T00:44:54;99387.50;;;13.30;52.68
74936;BME280;63501;55.570;37.488;2023-06-14T00:47:27;99385.97;;;13.25;53.13
74936;BME280;63501;55.570;37.488;2023-06-14T00:49:56;99389.56;;;13.22;53.56
74936;BME280;63501;55.570;37.488;2023-06-14T00:52:24;99388.38;;;13.19;53.46
74936;BME280;63501;55.570;37.488;2023-06-14T00:54:52;99388.38;;;13.19;53.14
74936;BME280;63501;55.570;37.488;2023-06-14T00:57:24;99382.03;;;13.19;53.83
74936;BME280;63501;55.570;37.488;2023-06-14T00:59:51;99382.44;;;13.21;53.90
74936;BME280;63501;55.570;37.488;2023-06-14T01:02:20;99380.44;;;13.21;53.64
74936;BME280;63501;55.570;37.488;2023-06-14T01:04:49;99382.44;;;13.21;53.75
74936;BME280;63501;55.570;37.488;2023-06-14T01:07:25;99384.81;;;13.19;53.20
74936;BME280;63501;55.570;37.488;2023-06-14T01:10:01;99386.78;;;13.18;53.47
74936;BME280;63501;55.570;37.488;2023-06-14T01:12:43;99382.03;;;13.19;53.67
74936;BME280;63501;55.570;37.488;2023-06-14T01:15:13;99383.59;;;13.20;53.35
74936;BME280;63501;55.570;37.488;2023-06-14T01:17:41;99386.78;;;13.18;54.25
74936;BME280;63501;55.570;37.488;2023-06-14T01:20:12;99385.63;;;13.16;53.70
74936;BME280;63501;55.570;37.488;2023-06-14T01:22:50;99379.69;;;13.14;54.27
74936;BME280;63501;55.570;37.488;2023-06-14T01:25:19;99387.63;;;13.15;53.94
74936;BME280;63501;55.570;37.488;2023-06-14T01:27:49;99391.59;;;13.14;54.43
74936;BME280;63501;55.570;37.488;2023-06-14T01:30:20;99385.25;;;13.14;53.79
74936;BME280;63501;55.570;37.488;2023-06-14T01:32:50;99389.22;;;13.13;54.71
74936;BME280;63501;55.570;37.488;2023-06-14T01:35:18;99386.03;;;13.14;54.30
74936;BME280;63501;55.570;37.488;2023-06-14T01:37:49;99385.63;;;13.16;55.09
74936;BME280;63501;55.570;37.488;2023-06-14T01:40:17;99390.75;;;13.17;54.14
74936;BME280;63501;55.570;37.488;2023-06-14T01:42:47;99380.84;;;13.20;53.97
74936;BME280;63501;55.570;37.488;2023-06-14T01:45:16;99380.44;;;13.25;54.45
74936;BME280;63501;55.570;37.488;2023-06-14T01:47:45;99383.94;;;13.29;54.06
74936;BME280;63501;55.570;37.488;2023-06-14T01:50:14;99381.13;;;13.33;53.86
74936;BME280;63501;55.570;37.488;2023-06-14T01:52:42;99387.06;;;13.35;54.58
74936;BME280;63501;55.570;37.488;2023-06-14T01:55:12;99392.22;;;13.36;54.54
74936;BME280;63501;55.570;37.488;2023-06-14T01:57:39;99393.00;;;13.37;54.92
74936;BME280;63501;55.570;37.488;2023-06-14T02:00:07;99389.84;;;13.35;54.06
74936;BME280;63501;55.570;37.488;2023-06-14T02:02:38;99388.31;;;13.30;55.08
74936;BME280;63501;55.570;37.488;2023-06-14T02:05:07;99386.75;;;13.26;54.04
74936;BME280;63501;55.570;37.488;2023-06-14T02:07:34;99380.00;;;13.27;53.74
74936;BME280;63501;55.570;37.488;2023-06-14T02:10:02;99379.16;;;13.30;54.22
74936;BME280;63501;55.570;37.488;2023-06-14T02:12:34;99377.94;;;13.34;54.27
74936;BME280;63501;55.570;37.488;2023-06-14T02:15:03;99372.34;;;13.41;54.19
74936;BME280;63501;55.570;37.488;2023-06-14T02:17:33;99371.03;;;13.49;53.79
74936;BME280;63501;55.570;37.488;2023-06-14T02:20:01;99376.53;;;13.57;53.75
74936;BME280;63501;55.570;37.488;2023-06-14T02:22:29;99375.25;;;13.65;53.29
74936;BME280;63501;55.570;37.488;2023-06-14T02:24:56;99376.75;;;13.73;53.06
74936;BME280;63501;55.570;37.488;2023-06-14T02:27:24;99379.44;;;13.80;53.05
74936;BME280;63501;55.570;37.488;2023-06-14T02:29:56;99379.38;;;13.87;54.13
74936;BME280;63501;55.570;37.488;2023-06-14T02:32:25;99374.91;;;13.93;53.78
74936;BME280;63501;55.570;37.488;2023-06-14T02:34:55;99383.16;;;14.00;53.90
74936;BME280;63501;55.570;37.488;2023-06-14T02:37:23;99386.25;;;14.10;53.16
74936;BME280;63501;55.570;37.488;2023-06-14T02:39:50;99377.81;;;14.17;54.11
74936;BME280;63501;55.570;37.488;2023-06-14T02:42:17;99377.34;;;14.22;54.28
74936;BME280;63501;55.570;37.488;2023-06-14T02:44:46;99381.22;;;14.28;53.76
74936;BME280;63501;55.570;37.488;2023-06-14T02:47:18;99376.34;;;14.36;53.12
74936;BME280;63501;55.570;37.488;2023-06-14T02:49:46;99377.41;;;14.45;53.36
74936;BME280;63501;55.570;37.488;2023-06-14T02:52:13;99382.84;;;14.56;53.60
74936;BME280;63501;55.570;37.488;2023-06-14T02:54:40;99385.13;;;14.65;53.05
74936;BME280;63501;55.570;37.488;2023-06-14T02:57:08;99388.53;;;14.76;53.03
74936;BME280;63501;55.570;37.488;2023-06-14T02:59:36;99388.75;;;14.85;52.61
74936;BME280;63501;55.570;37.488;2023-06-14T03:02:03;99386.59;;;14.96;52.13
74936;BME280;63501;55.570;37.488;2023-06-14T03:04:35;99388.78;;;15.08;52.92
74936;BME280;63501;55.570;37.488;2023-06-14T03:07:04;99382.63;;;15.21;52.35
74936;BME280;63501;55.570;37.488;2023-06-14T03:09:35;99384.00;;;15.32;51.51
74936;BME280;63501;55.570;37.488;2023-06-14T03:12:04;99384.19;;;15.45;51.06
74936;BME280;63501;55.570;37.488;2023-06-14T03:14:33;99380.75;;;15.57;51.15
74936;BME280;63501;55.570;37.488;2023-06-14T03:17:00;99375.81;;;15.69;51.46
74936;BME280;63501;55.570;37.488;2023-06-14T03:19:28;99371.59;;;15.80;51.12
74936;BME280;63501;55.570;37.488;2023-06-14T03:21:56;99380.09;;;15.93;50.56
74936;BME280;63501;55.570;37.488;2023-06-14T03:24:24;99372.78;;;15.99;50.84
74936;BME280;63501;55.570;37.488;2023-06-14T03:26:53;99378.66;;;16.05;50.93
74936;BME280;63501;55.570;37.488;2023-06-14T03:29:21;99376.53;;;16.12;50.06
74936;BME280;63501;55.570;37.488;2023-06-14T03:31:58;99373.91;;;16.22;49.53
74936;BME280;63501;55.570;37.488;2023-06-14T03:34:27;99368.53;;;16.31;49.93
74936;BME280;63501;55.570;37.488;2023-06-14T03:36:57;99369.16;;;16.38;49.40
74936;BME280;63501;55.570;37.488;2023-06-14T03:39:24;99370.16;;;16.48;48.81
74936;BME280;63501;55.570;37.488;2023-06-14T03:41:52;99371.66;;;16.53;49.09
74936;BME280;63501;55.570;37.488;2023-06-14T03:44:19;99369.06;;;16.62;48.74
74936;BME280;63501;55.570;37.488;2023-06-14T03:46:46;99369.66;;;16.70;48.00
74936;BME280;63501;55.570;37.488;2023-06-14T03:49:13;99366.72;;;16.77;47.72
74936;BME280;63501;55.570;37.488;2023-06-14T03:51:42;99370.56;;;16.83;47.44
74936;BME280;63501;55.570;37.488;2023-06-14T03:54:18;99373.09;;;16.93;47.57
74936;BME280;63501;55.570;37.488;2023-06-14T03:56:47;99370.03;;;17.04;46.97
74936;BME280;63501;55.570;37.488;2023-06-14T03:59:14;99377.03;;;17.12;47.07
74936;BME280;63501;55.570;37.488;2023-06-14T04:01:41;99374.41;;;17.22;46.34
74936;BME280;63501;55.570;37.488;2023-06-14T04:04:10;99373.78;;;17.30;46.37
74936;BME280;63501;55.570;37.488;2023-06-14T04:06:38;99370.00;;;17.37;46.17
74936;BME280;63501;55.570;37.488;2023-06-14T04:09:06;99370.19;;;17.46;45.62
74936;BME280;63501;55.570;37.488;2023-06-14T04:11:35;99377.47;;;17.56;45.28
74936;BME280;63501;55.570;37.488;2023-06-14T04:14:05;99374.94;;;17.62;44.95
74936;BME280;63501;55.570;37.488;2023-06-14T04:16:34;99368.03;;;17.66;44.88
74936;BME280;63501;55.570;37.488;2023-06-14T04:19:02;99377.47;;;17.73;44.82
74936;BME280;63501;55.570;37.488;2023-06-14T04:21:29;99369.78;;;17.77;44.07
74936;BME280;63501;55.570;37.488;2023-06-14T04:23:57;99359.72;;;17.79;44.15
74936;BME280;63501;55.570;37.488;2023-06-14T04:26:27;99372.19;;;17.91;43.91
74936;BME280;63501;55.570;37.488;2023-06-14T04:29:01;99361.88;;;18.01;44.01
74936;BME280;63501;55.570;37.488;2023-06-14T04:31:28;99360.34;;;18.12;43.16
74936;BME280;63501;55.570;37.488;2023-06-14T04:34:00;99370.81;;;18.24;43.86
74936;BME280;63501;55.570;37.488;2023-06-14T04:36:33;99368.88;;;18.34;43.87
74936;BME280;63501;55.570;37.488;2023-06-14T04:39:02;99364.53;;;18.46;43.54
74936;BME280;63501;55.570;37.488;2023-06-14T04:41:30;99363.41;;;18.56;43.52
74936;BME280;63501;55.570;37.488;2023-06-14T04:44:01;99363.91;;;18.67;43.49
74936;BME280;63501;55.570;37.488;2023-06-14T04:46:32;99356.50;;;18.73;43.52
74936;BME280;63501;55.570;37.488;2023-06-14T04:49:09;99362.78;;;18.77;43.39
74936;BME280;63501;55.570;37.488;2023-06-14T04:51:40;99358.75;;;18.79;42.93
74936;BME280;63501;55.570;37.488;2023-06-14T04:54:08;99366.59;;;18.84;42.26
74936;BME280;63501;55.570;37.488;2023-06-14T04:56:39;99361.66;;;18.88;42.83
74936;BME280;63501;55.570;37.488;2023-06-14T04:59:09;99360.75;;;18.91;42.38
74936;BME280;63501;55.570;37.488;2023-06-14T05:01:37;99361.31;;;18.98;42.39
74936;BME280;63501;55.570;37.488;2023-06-14T05:04:04;99357.81;;;19.07;42.09
74936;BME280;63501;55.570;37.488;2023-06-14T05:06:31;99350.06;;;19.11;41.37
74936;BME280;63501;55.570;37.488;2023-06-14T05:08:58;99353.84;;;19.17;41.73
74936;BME280;63501;55.570;37.488;2023-06-14T05:11:26;99350.81;;;19.24;42.05
74936;BME280;63501;55.570;37.488;2023-06-14T05:13:53;99352.16;;;19.33;41.58
74936;BME280;63501;55.570;37.488;2023-06-14T05:16:22;99353.13;;;19.39;41.54
74936;BME280;63501;55.570;37.488;2023-06-14T05:18:51;99344.47;;;19.46;41.53
74936;BME280;63501;55.570;37.488;2023-06-14T05:21:18;99345.13;;;19.50;40.87
74936;BME280;63501;55.570;37.488;2023-06-14T05:23:51;99350.47;;;19.57;40.27
74936;BME280;63501;55.570;37.488;2023-06-14T05:26:19;99347.78;;;19.66;40.53
74936;BME280;63501;55.570;37.488;2023-06-14T05:28:46;99353.78;;;19.77;40.36
74936;BME280;63501;55.570;37.488;2023-06-14T05:31:13;99346.34;;;19.84;40.20
74936;BME280;63501;55.570;37.488;2023-06-14T05:33:42;99345.56;;;19.83;39.33
74936;BME280;63501;55.570;37.488;2023-06-14T05:36:09;99349.47;;;19.86;39.54
74936;BME280;63501;55.570;37.488;2023-06-14T05:38:37;99351.06;;;19.87;38.97
74936;BME280;63501;55.570;37.488;2023-06-14T05:41:04;99358.22;;;19.88;38.67
74936;BME280;63501;55.570;37.488;2023-06-14T05:43:31;99354.19;;;19.89;38.84
74936;BME280;63501;55.570;37.488;2023-06-14T05:45:58;99359.22;;;19.94;38.82
74936;BME280;63501;55.570;37.488;2023-06-14T05:48:26;99359.25;;;20.03;38.81
74936;BME280;63501;55.570;37.488;2023-06-14T05:50:55;99364.94;;;20.12;37.77
74936;BME280;63501;55.570;37.488;2023-06-14T05:53:22;99357.44;;;20.09;37.65
74936;BME280;63501;55.570;37.488;2023-06-14T05:55:49;99364.28;;;20.08;37.14
74936;BME280;63501;55.570;37.488;2023-06-14T05:58:17;99356.00;;;20.04;37.04
74936;BME280;63501;55.570;37.488;2023-06-14T06:00:45;99355.72;;;20.12;37.02
74936;BME280;63501;55.570;37.488;2023-06-14T06:03:13;99359.03;;;20.19;37.34
74936;BME280;63501;55.570;37.488;2023-06-14T06:05:40;99371.25;;;20.25;37.08
74936;BME280;63501;55.570;37.488;2023-06-14T06:08:10;99368.19;;;20.32;37.24
74936;BME280;63501;55.570;37.488;2023-06-14T06:10:38;99359.78;;;20.42;36.26
74936;BME280;63501;55.570;37.488;2023-06-14T06:13:05;99362.69;;;20.51;35.93
74936;BME280;63501;55.570;37.488;2023-06-14T06:15:35;99362.25;;;20.62;35.80
74936;BME280;63501;55.570;37.488;2023-06-14T06:18:03;99366.34;;;20.70;35.97
74936;BME280;63501;55.570;37.488;2023-06-14T06:20:30;99362.47;;;20.76;36.36
74936;BME280;63501;55.570;37.488;2023-06-14T06:22:58;99365.78;;;20.84;34.53
74936;BME280;63501;55.570;37.488;2023-06-14T06:25:26;99363.09;;;20.80;34.89
74936;BME280;63501;55.570;37.488;2023-06-14T06:27:54;99361.84;;;20.72;34.27
74936;BME280;63501;55.570;37.488;2023-06-14T06:30:21;99366.19;;;20.73;35.55
74936;BME280;63501;55.570;37.488;2023-06-14T06:32:48;99364.28;;;20.70;35.06
74936;BME280;63501;55.570;37.488;2023-06-14T06:35:16;99361.78;;;20.63;34.30
74936;BME280;63501;55.570;37.488;2023-06-14T06:37:44;99357.28;;;20.66;34.49
74936;BME280;63501;55.570;37.488;2023-06-14T06:40:12;99353.06;;;20.70;34.32
74936;BME280;63501;55.570;37.488;2023-06-14T06:42:40;99360.88;;;20.75;34.53
74936;BME280;63501;55.570;37.488;2023-06-14T06:45:09;99362.91;;;20.75;34.85
74936;BME280;63501;55.570;37.488;2023-06-14T06:47:37;99365.00;;;20.83;34.50
74936;BME280;63501;55.570;37.488;2023-06-14T06:50:05;99369.41;;;20.94;35.00
74936;BME280;63501;55.570;37.488;2023-06-14T06:52:33;99365.94;;;20.99;33.49
74936;BME280;63501;55.570;37.488;2023-06-14T06:55:01;99357.84;;;21.01;34.59
74936;BME280;63501;55.570;37.488;2023-06-14T06:57:30;99362.06;;;20.96;33.60
74936;BME280;63501;55.570;37.488;2023-06-14T06:59:59;99358.94;;;20.94;33.46
74936;BME280;63501;55.570;37.488;2023-06-14T07:02:26;99360.31;;;20.99;33.90
74936;BME280;63501;55.570;37.488;2023-06-14T07:04:55;99352.53;;;21.03;33.04
74936;BME280;63501;55.570;37.488;2023-06-14T07:07:22;99351.00;;;21.11;34.13
74936;BME280;63501;55.570;37.488;2023-06-14T07:09:49;99351.94;;;21.17;33.15
74936;BME280;63501;55.570;37.488;2023-06-14T07:12:17;99347.41;;;21.20;33.30
74936;BME280;63501;55.570;37.488;2023-06-14T07:14:44;99352.25;;;21.19;33.56
74936;BME280;63501;55.570;37.488;2023-06-14T07:17:12;99351.06;;;21.29;33.26
74936;BME280;63501;55.570;37.488;2023-06-14T07:22:06;99346.53;;;21.41;33.51
74936;BME280;63501;55.570;37.488;2023-06-14T07:27:02;99340.44;;;21.43;31.68
74936;BME280;63501;55.570;37.488;2023-06-14T07:29:31;99344.50;;;21.42;32.54
74936;BME280;63501;55.570;37.488;2023-06-14T07:31:58;99344.81;;;21.44;32.26
74936;BME280;63501;55.570;37.488;2023-06-14T07:34:27;99352.94;;;21.42;31.56
74936;BME280;63501;55.570;37.488;2023-06-14T07:36:54;99344.66;;;21.47;32.59
74936;BME280;63501;55.570;37.488;2023-06-14T07:39:22;99347.63;;;21.53;32.36
74936;BME280;63501;55.570;37.488;2023-06-14T07:41:50;99343.28;;;21.61;32.45
74936;BME280;63501;55.570;37.488;2023-06-14T07:44:17;99347.16;;;21.63;32.03
74936;BME280;63501;55.570;37.488;2023-06-14T07:46:45;99337.66;;;21.61;32.46
74936;BME280;63501;55.570;37.488;2023-06-14T07:49:15;99343.28;;;21.61;32.16
74936;BME280;63501;55.570;37.488;2023-06-14T07:51:43;99329.03;;;21.64;32.21
74936;BME280;63501;55.570;37.488;2023-06-14T07:54:12;99329.97;;;21.71;31.76
74936;BME280;63501;55.570;37.488;2023-06-14T07:56:39;99326.84;;;21.78;32.09
74936;BME280;63501;55.570;37.488;2023-06-14T07:59:07;99324.78;;;21.87;32.26
74936;BME280;63501;55.570;37.488;2023-06-14T08:01:34;99333.22;;;21.97;31.77
74936;BME280;63501;55.570;37.488;2023-06-14T08:04:05;99338.38;;;21.98;32.17
74936;BME280;63501;55.570;37.488;2023-06-14T08:06:33;99339.91;;;21.99;32.35
74936;BME280;63501;55.570;37.488;2023-06-14T08:09:02;99339.13;;;21.99;31.79
74936;BME280;63501;55.570;37.488;2023-06-14T08:11:29;99338.34;;;22.07;31.13
74936;BME280;63501;55.570;37.488;2023-06-14T08:13:56;99342.41;;;22.15;31.22
74936;BME280;63501;55.570;37.488;2023-06-14T08:16:24;99334.44;;;22.23;31.12
74936;BME280;63501;55.570;37.488;2023-06-14T08:18:51;99341.94;;;22.26;32.07
74936;BME280;63501;55.570;37.488;2023-06-14T08:21:18;99333.63;;;22.32;31.98
74936;BME280;63501;55.570;37.488;2023-06-14T08:23:50;99337.19;;;22.41;31.30
74936;BME280;63501;55.570;37.488;2023-06-14T08:26:22;99344.34;;;22.52;31.15
74936;BME280;63501;55.570;37.488;2023-06-14T08:28:51;99333.09;;;22.52;30.78
74936;BME280;63501;55.570;37.488;2023-06-14T08:31:18;99335.00;;;22.46;31.37
74936;BME280;63501;55.570;37.488;2023-06-14T08:33:46;99333.09;;;22.42;30.74
74936;BME280;63501;55.570;37.488;2023-06-14T08:36:15;99332.75;;;22.50;30.85
74936;BME280;63501;55.570;37.488;2023-06-14T08:38:42;99334.34;;;22.51;30.89
74936;BME280;63501;55.570;37.488;2023-06-14T08:41:11;99328.22;;;22.52;30.85
74936;BME280;63501;55.570;37.488;2023-06-14T08:43:41;99332.09;;;22.64;30.83
74936;BME280;63501;55.570;37.488;2023-06-14T08:46:08;99337.69;;;22.73;30.00
74936;BME280;63501;55.570;37.488;2023-06-14T08:48:39;99330.78;;;22.74;30.51
74936;BME280;63501;55.570;37.488;2023-06-14T08:51:08;99328.88;;;22.80;30.36
74936;BME280;63501;55.570;37.488;2023-06-14T08:53:38;99325.06;;;22.92;30.64
74936;BME280;63501;55.570;37.488;2023-06-14T08:56:08;99318.00;;;22.97;30.03
74936;BME280;63501;55.570;37.488;2023-06-14T08:58:42;99319.06;;;23.00;30.53
74936;BME280;63501;55.570;37.488;2023-06-14T09:01:12;99325.31;;;23.04;30.10
74936;BME280;63501;55.570;37.488;2023-06-14T09:03:40;99319.91;;;23.63;29.18
74936;BME280;63501;55.570;37.488;2023-06-14T09:06:31;99307.69;;;24.60;28.52
74936;BME280;63501;55.570;37.488;2023-06-14T09:08:59;99301.13;;;25.45;27.69
74936;BME280;63501;55.570;37.488;2023-06-14T09:11:27;99292.97;;;26.30;26.77
74936;BME280;63501;55.570;37.488;2023-06-14T09:13:55;99295.44;;;26.92;25.78
74936;BME280;63501;55.570;37.488;2023-06-14T09:16:22;99283.38;;;27.62;25.17
74936;BME280;63501;55.570;37.488;2023-06-14T09:18:49;99278.03;;;28.37;25.13
74936;BME280;63501;55.570;37.488;2023-06-14T09:21:17;99271.22;;;28.90;24.36
74936;BME280;63501;55.570;37.488;2023-06-14T09:23:45;99262.25;;;29.33;23.84
74936;BME280;63501;55.570;37.488;2023-06-14T09:26:14;99271.19;;;29.60;23.39
74936;BME280;63501;55.570;37.488;2023-06-14T09:28:43;99274.38;;;29.92;22.99
74936;BME280;63501;55.570;37.488;2023-06-14T09:31:12;99274.69;;;30.18;22.37
74936;BME280;63501;55.570;37.488;2023-06-14T09:33:41;99271.56;;;30.46;22.22
74936;BME280;63501;55.570;37.488;2023-06-14T09:36:15;99270.09;;;30.70;21.31
74936;BME280;63501;55.570;37.488;2023-06-14T09:38:51;99267.22;;;31.13;21.58
74936;BME280;63501;55.570;37.488;2023-06-14T09:41:19;99267.75;;;31.55;21.07
74936;BME280;63501;55.570;37.488;2023-06-14T09:43:46;99259.13;;;31.93;21.03
74936;BME280;63501;55.570;37.488;2023-06-14T09:46:17;99256.00;;;32.09;20.49
74936;BME280;63501;55.570;37.488;2023-06-14T09:48:45;99264.63;;;32.23;20.33
74936;BME280;63501;55.570;37.488;2023-06-14T09:51:14;99253.16;;;32.55;20.02
74936;BME280;63501;55.570;37.488;2023-06-14T09:53:44;99249.84;;;32.51;19.88
74936;BME280;63501;55.570;37.488;2023-06-14T09:56:13;99253.38;;;32.70;19.97
74936;BME280;63501;55.570;37.488;2023-06-14T09:58:42;99256.03;;;32.81;19.74
74936;BME280;63501;55.570;37.488;2023-06-14T10:01:10;99248.78;;;32.94;19.44
74936;BME280;63501;55.570;37.488;2023-06-14T10:03:41;99242.06;;;33.04;18.99
74936;BME280;63501;55.570;37.488;2023-06-14T10:06:10;99233.56;;;33.12;18.75
74936;BME280;63501;55.570;37.488;2023-06-14T10:08:37;99225.78;;;33.33;18.59
74936;BME280;63501;55.570;37.488;2023-06-14T10:11:07;99235.50;;;33.43;18.61
74936;BME280;63501;55.570;37.488;2023-06-14T10:13:35;99226.94;;;33.17;19.18
74936;BME280;63501;55.570;37.488;2023-06-14T10:16:09;99225.53;;;32.97;18.99
74936;BME280;63501;55.570;37.488;2023-06-14T10:18:44;99230.81;;;32.93;19.02
74936;BME280;63501;55.570;37.488;2023-06-14T10:21:21;99227.28;;;32.74;18.97
74936;BME280;63501;55.570;37.488;2023-06-14T10:23:51;99226.72;;;32.49;19.19
74936;BME280;63501;55.570;37.488;2023-06-14T10:26:20;99226.50;;;32.60;19.01
74936;BME280;63501;55.570;37.488;2023-06-14T10:28:59;99238.63;;;32.79;19.08
74936;BME280;63501;55.570;37.488;2023-06-14T10:31:43;99221.03;;;33.02;18.99
74936;BME280;63501;55.570;37.488;2023-06-14T10:34:21;99212.97;;;33.13;18.76
74936;BME280;63501;55.570;37.488;2023-06-14T10:37:01;99226.13;;;33.43;18.84
74936;BME280;63501;55.570;37.488;2023-06-14T10:39:28;99204.78;;;33.65;18.93
74936;BME280;63501;55.570;37.488;2023-06-14T10:42:05;99203.31;;;33.72;18.49
74936;BME280;63501;55.570;37.488;2023-06-14T10:44:41;99200.13;;;33.96;18.39
74936;BME280;63501;55.570;37.488;2023-06-14T10:47:11;99204.38;;;34.24;18.69
74936;BME280;63501;55.570;37.488;2023-06-14T10:49:51;99201.06;;;34.40;18.21
74936;BME280;63501;55.570;37.488;2023-06-14T10:52:27;99197.91;;;34.52;18.27
74936;BME280;63501;55.570;37.488;2023-06-14T10:55:07;99195.44;;;34.56;17.87
74936;BME280;63501;55.570;37.488;2023-06-14T10:57:45;99200.31;;;34.68;18.01
74936;BME280;63501;55.570;37.488;2023-06-14T11:00:19;99179.75;;;34.93;17.93
74936;BME280;63501;55.570;37.488;2023-06-14T11:02:55;99178.06;;;34.97;17.74
74936;BME280;63501;55.570;37.488;2023-06-14T11:05:29;99187.75;;;34.87;17.51
74936;BME280;63501;55.570;37.488;2023-06-14T11:08:17;99187.59;;;34.56;17.86
74936;BME280;63501;55.570;37.488;2023-06-14T11:10:47;99192.59;;;34.35;17.85
74936;BME280;63501;55.570;37.488;2023-06-14T11:13:16;99191.72;;;34.19;17.92
74936;BME280;63501;55.570;37.488;2023-06-14T11:15:47;99182.38;;;34.26;17.79
74936;BME280;63501;55.570;37.488;2023-06-14T11:18:18;99185.09;;;34.53;18.09
74936;BME280;63501;55.570;37.488;2023-06-14T11:20:53;99177.94;;;34.75;17.33
74936;BME280;63501;55.570;37.488;2023-06-14T11:23:22;99185.97;;;34.76;17.66
74936;BME280;63501;55.570;37.488;2023-06-14T11:25:50;99179.34;;;34.89;17.42
74936;BME280;63501;55.570;37.488;2023-06-14T11:28:19;99177.59;;;35.22;17.33
74936;BME280;63501;55.570;37.488;2023-06-14T11:30:48;99177.53;;;35.66;17.00
74936;BME280;63501;55.570;37.488;2023-06-14T11:33:18;99175.03;;;35.70;16.86
74936;BME280;63501;55.570;37.488;2023-06-14T11:35:47;99170.59;;;35.54;17.10
74936;BME280;63501;55.570;37.488;2023-06-14T11:38:15;99165.63;;;35.62;16.86
74936;BME280;63501;55.570;37.488;2023-06-14T11:40:43;99158.72;;;35.49;17.17
74936;BME280;63501;55.570;37.488;2023-06-14T11:43:11;99165.22;;;35.58;17.14
74936;BME280;63501;55.570;37.488;2023-06-14T11:45:39;99163.91;;;35.74;16.97
74936;BME280;63501;55.570;37.488;2023-06-14T11:48:08;99155.31;;;36.05;16.67
74936;BME280;63501;55.570;37.488;2023-06-14T11:50:38;99153.56;;;36.24;16.62
74936;BME280;63501;55.570;37.488;2023-06-14T11:53:08;99146.84;;;36.22;17.02
74936;BME280;63501;55.570;37.488;2023-06-14T11:55:38;99154.53;;;36.27;16.73
74936;BME280;63501;55.570;37.488;2023-06-14T11:58:06;99149.38;;;36.10;16.77
74936;BME280;63501;55.570;37.488;2023-06-14T12:00:36;99143.63;;;35.95;16.97
74936;BME280;63501;55.570;37.488;2023-06-14T12:03:04;99152.63;;;35.76;16.72
74936;BME280;63501;55.570;37.488;2023-06-14T12:05:33;99139.41;;;35.96;16.88
74936;BME280;63501;55.570;37.488;2023-06-14T12:08:03;99138.44;;;36.01;16.68
74936;BME280;63501;55.570;37.488;2023-06-14T12:10:40;99138.63;;;36.11;16.62
74936;BME280;63501;55.570;37.488;2023-06-14T12:13:09;99132.66;;;36.24;16.57
74936;BME280;63501;55.570;37.488;2023-06-14T12:15:38;99138.75;;;36.36;16.54
74936;BME280;63501;55.570;37.488;2023-06-14T12:18:06;99144.72;;;36.38;16.43
74936;BME280;63501;55.570;37.488;2023-06-14T12:20:34;99132.81;;;36.49;16.71
74936;BME280;63501;55.570;37.488;2023-06-14T12:23:03;99125.88;;;36.60;15.95
74936;BME280;63501;55.570;37.488;2023-06-14T12:25:32;99137.06;;;36.48;16.19
74936;BME280;63501;55.570;37.488;2023-06-14T12:28:04;99123.28;;;36.16;16.32
74936;BME280;63501;55.570;37.488;2023-06-14T12:30:32;99128.63;;;36.12;16.16
74936;BME280;63501;55.570;37.488;2023-06-14T12:33:00;99124.41;;;35.82;16.20
74936;BME280;63501;55.570;37.488;2023-06-14T12:35:28;99117.69;;;35.80;16.55
74936;BME280;63501;55.570;37.488;2023-06-14T12:37:55;99123.44;;;35.80;16.48
74936;BME280;63501;55.570;37.488;2023-06-14T12:40:23;99120.56;;;35.80;16.69
74936;BME280;63501;55.570;37.488;2023-06-14T12:42:50;99120.19;;;35.60;16.39
74936;BME280;63501;55.570;37.488;2023-06-14T12:45:19;99128.94;;;35.39;16.66
74936;BME280;63501;55.570;37.488;2023-06-14T12:47:46;99118.97;;;35.25;16.95
74936;BME280;63501;55.570;37.488;2023-06-14T12:50:13;99127.03;;;35.34;16.88
74936;BME280;63501;55.570;37.488;2023-06-14T12:52:40;99123.84;;;35.53;16.43
74936;BME280;63501;55.570;37.488;2023-06-14T12:55:08;99119.44;;;35.75;16.54
74936;BME280;63501;55.570;37.488;2023-06-14T12:57:35;99113.88;;;35.77;16.38
74936;BME280;63501;55.570;37.488;2023-06-14T13:00:04;99113.69;;;35.60;16.22
74936;BME280;63501;55.570;37.488;2023-06-14T13:02:35;99108.66;;;35.45;16.49
74936;BME280;63501;55.570;37.488;2023-06-14T13:05:03;99112.88;;;35.36;16.85